Time;durP1;ratioP1;P1;durP2;ratioP2;P2;SDS_P1;SDS_P2;PMS_P1;PMS_P2;Temp;Humidity;BMP_temperature;BMP_pressure;BME280_temperature;BME280_humidity;BME280_pressure;Samples;Min_cycle;Max_cycle;Signal;HPM_P1;HPM_P2
2023/05/29 00:01:56;;;;;;;17.17;4.38;;;;;;;14.21;57.09;101331.94;5067389;28;20063;-53
2023/05/29 00:04:23;;;;;;;10.13;4.00;;;;;;;14.18;57.17;101325.88;5067133;28;20147;-51
2023/05/29 00:06:50;;;;;;;10.90;4.43;;;;;;;14.17;57.25;101323.31;5070876;28;20978;-55
2023/05/29 00:09:18;;;;;;;8.07;4.00;;;;;;;14.14;57.35;101313.78;5072861;28;20465;-52
2023/05/29 00:11:50;;;;;;;11.45;4.85;;;;;;;14.10;57.05;101317.56;5067636;28;20056;-50
2023/05/29 00:14:19;;;;;;;8.65;3.80;;;;;;;14.04;57.33;101320.56;5057427;28;20128;-54
2023/05/29 00:16:46;;;;;;;12.35;4.80;;;;;;;13.99;58.17;101333.25;5066661;28;20053;-53
2023/05/29 00:19:16;;;;;;;10.95;4.25;;;;;;;13.95;57.90;101329.09;5064437;28;20048;-54
2023/05/29 00:21:43;;;;;;;8.68;3.95;;;;;;;13.91;58.30;101335.50;5070989;28;20052;-49
2023/05/29 00:24:11;;;;;;;9.32;4.65;;;;;;;13.88;58.32;101330.44;5070360;28;20084;-55
2023/05/29 00:26:38;;;;;;;15.68;4.32;;;;;;;13.85;58.70;101322.66;5065313;28;20365;-55
2023/05/29 00:29:05;;;;;;;14.93;4.40;;;;;;;13.83;58.85;101324.56;5072746;28;20175;-56
2023/05/29 00:31:32;;;;;;;9.98;4.20;;;;;;;13.77;59.06;101331.06;5065403;28;20140;-51
2023/05/29 00:34:00;;;;;;;11.10;4.57;;;;;;;13.74;58.79;101327.78;5069911;28;20054;-54
2023/05/29 00:36:28;;;;;;;15.13;5.45;;;;;;;13.73;59.11;101320.75;5073584;28;20047;-51
2023/05/29 00:38:55;;;;;;;11.57;4.85;;;;;;;13.68;59.31;101319.25;5072384;28;20075;-56
2023/05/29 00:41:23;;;;;;;9.90;3.85;;;;;;;13.66;59.30;101317.66;5070955;28;20128;-55
2023/05/29 00:43:50;;;;;;;15.70;4.88;;;;;;;13.62;60.01;101327.56;5070394;28;20056;-53
2023/05/29 00:46:17;;;;;;;11.65;4.20;;;;;;;13.58;60.18;101322.56;5070349;28;20044;-52
2023/05/29 00:48:44;;;;;;;15.05;4.63;;;;;;;13.56;59.70;101322.66;5067209;28;20468;-49
2023/05/29 00:51:12;;;;;;;12.38;4.18;;;;;;;13.54;59.63;101318.38;5074905;28;20042;-52
2023/05/29 00:53:40;;;;;;;10.60;4.07;;;;;;;13.51;60.28;101318.56;5071454;28;20045;-54
2023/05/29 00:56:08;;;;;;;8.20;3.63;;;;;;;13.49;60.06;101316.03;5070780;28;20044;-52
2023/05/29 00:58:36;;;;;;;12.73;4.43;;;;;;;13.46;60.23;101318.84;5069018;28;20040;-52
2023/05/29 01:01:03;;;;;;;8.35;4.22;;;;;;;13.42;60.40;101315.56;5080543;28;20112;-57
2023/05/29 01:03:32;;;;;;;13.20;4.38;;;;;;;13.40;60.26;101322.72;5061013;28;20135;-53
2023/05/29 01:06:00;;;;;;;13.38;4.55;;;;;;;13.37;60.62;101324.69;5074821;28;20048;-53
2023/05/29 01:08:27;;;;;;;12.10;4.70;;;;;;;13.35;60.58;101318.66;5074796;28;20518;-54
2023/05/29 01:11:00;;;;;;;9.70;4.57;;;;;;;13.34;60.81;101324.88;5064180;28;20045;-53
2023/05/29 01:13:30;;;;;;;11.38;4.10;;;;;;;13.33;60.64;101328.47;5058888;28;20056;-51
2023/05/29 01:16:08;;;;;;;10.98;4.97;;;;;;;13.31;60.92;101330.34;5077206;28;20067;-50
2023/05/29 01:18:49;;;;;;;16.67;4.25;;;;;;;13.26;60.47;101322.69;5068957;28;20144;-50
2023/05/29 01:21:36;;;;;;;10.65;4.22;;;;;;;13.24;60.72;101327.22;5070954;28;20048;-55
2023/05/29 01:24:23;;;;;;;10.77;4.38;;;;;;;13.22;60.57;101322.94;5067373;28;20056;-50
2023/05/29 01:26:54;;;;;;;9.35;4.00;;;;;;;13.18;60.62;101323.09;5071418;28;20043;-52
2023/05/29 01:29:25;;;;;;;10.18;4.05;;;;;;;13.15;60.82;101323.28;5072098;28;20059;-51
2023/05/29 01:31:53;;;;;;;10.88;4.22;;;;;;;13.13;61.17;101334.88;5082772;28;20126;-57
2023/05/29 01:34:20;;;;;;;11.60;4.38;;;;;;;13.11;60.64;101332.34;5068797;28;20152;-52
2023/05/29 01:36:47;;;;;;;13.43;4.65;;;;;;;13.09;60.94;101330.72;5074288;28;20068;-54
2023/05/29 01:39:15;;;;;;;13.60;5.38;;;;;;;13.05;61.53;101337.13;5068227;28;20057;-54
2023/05/29 01:41:44;;;;;;;6.72;3.78;;;;;;;13.00;61.26;101332.09;5063559;28;20048;-51
2023/05/29 01:44:12;;;;;;;12.77;4.55;;;;;;;12.99;61.69;101338.34;5070965;28;20058;-52
2023/05/29 01:46:41;;;;;;;9.20;4.30;;;;;;;12.95;61.89;101338.59;5072794;28;20049;-52
2023/05/29 01:49:11;;;;;;;12.15;5.05;;;;;;;12.86;62.12;101340.81;5067652;28;20108;-53
2023/05/29 01:51:40;;;;;;;12.18;4.70;;;;;;;12.82;62.35;101338.44;5064806;28;20069;-52
2023/05/29 01:54:08;;;;;;;11.50;4.72;;;;;;;12.79;62.47;101338.59;5065151;28;20063;-58
2023/05/29 01:56:35;;;;;;;11.95;4.90;;;;;;;12.75;63.04;101337.94;5070117;28;20067;-55
2023/05/29 01:59:03;;;;;;;12.75;4.68;;;;;;;12.74;62.85;101340.66;5066085;28;20663;-54
2023/05/29 02:01:31;;;;;;;12.85;4.82;;;;;;;12.73;63.09;101336.31;5070271;28;20058;-51
2023/05/29 02:03:58;;;;;;;10.90;4.97;;;;;;;12.70;63.11;101334.72;5074615;28;20056;-54
2023/05/29 02:06:26;;;;;;;10.00;4.70;;;;;;;12.67;63.60;101341.00;5078593;28;20057;-55
2023/05/29 02:08:53;;;;;;;14.43;4.97;;;;;;;12.63;63.64;101347.41;5075691;28;20354;-53
2023/05/29 02:11:21;;;;;;;9.70;4.90;;;;;;;12.60;63.81;101349.34;5064751;28;20044;-52
2023/05/29 02:13:48;;;;;;;10.65;5.10;;;;;;;12.58;63.85;101348.59;5068157;28;20419;-56
2023/05/29 02:16:16;;;;;;;15.65;4.55;;;;;;;12.56;64.29;101343.41;5067910;28;20139;-51
2023/05/29 02:18:44;;;;;;;12.85;4.35;;;;;;;12.54;64.05;101349.72;5070787;28;20156;-54
2023/05/29 02:21:11;;;;;;;10.70;4.85;;;;;;;12.50;64.39;101341.09;5069115;28;20546;-51
2023/05/29 02:23:39;;;;;;;17.63;5.15;;;;;;;12.49;64.67;101347.31;5067020;28;20055;-52
2023/05/29 02:26:07;;;;;;;11.32;4.95;;;;;;;12.46;64.60;101344.00;5069365;28;20048;-54
2023/05/29 02:28:34;;;;;;;13.30;5.05;;;;;;;12.41;65.81;101338.97;5068649;28;20560;-51
2023/05/29 02:31:02;;;;;;;12.48;4.90;;;;;;;12.36;65.46;101346.28;5067096;28;20135;-52
2023/05/29 02:33:29;;;;;;;11.82;4.93;;;;;;;12.32;66.01;101344.75;5068118;28;20060;-53
2023/05/29 02:35:57;;;;;;;12.13;4.88;;;;;;;12.26;66.23;101348.59;5070261;28;20064;-53
2023/05/29 02:38:24;;;;;;;14.48;4.85;;;;;;;12.23;66.38;101348.75;5073501;28;20048;-52
2023/05/29 02:40:51;;;;;;;14.25;5.15;;;;;;;12.21;66.90;101349.78;5071871;28;20056;-56
2023/05/29 02:43:21;;;;;;;13.45;5.60;;;;;;;12.16;67.46;101352.69;5066848;28;20165;-52
2023/05/29 02:45:48;;;;;;;13.52;5.50;;;;;;;12.12;67.66;101351.13;5068141;28;20269;-55
2023/05/29 02:48:15;;;;;;;12.07;5.00;;;;;;;12.09;67.64;101348.66;5075175;28;21474;-52
2023/05/29 02:50:42;;;;;;;16.45;5.78;;;;;;;12.07;67.73;101345.25;5066765;28;20366;-55
2023/05/29 02:53:10;;;;;;;10.70;4.93;;;;;;;12.05;68.07;101341.81;5075584;28;20044;-54
2023/05/29 02:55:37;;;;;;;12.20;4.45;;;;;;;12.05;67.98;101349.75;5070127;28;20044;-49
2023/05/29 02:58:04;;;;;;;29.27;5.22;;;;;;;12.04;67.94;101348.91;5069075;28;20068;-56
2023/05/29 03:00:31;;;;;;;12.77;5.05;;;;;;;12.03;68.20;101347.19;5071321;28;20059;-53
2023/05/29 03:03:00;;;;;;;11.88;5.13;;;;;;;12.04;68.11;101356.81;5069916;28;20053;-56
2023/05/29 03:05:28;;;;;;;19.15;5.78;;;;;;;12.05;68.19;101360.28;5069735;28;20062;-52
2023/05/29 03:07:55;;;;;;;9.23;5.30;;;;;;;12.03;68.80;101363.03;5072896;28;20151;-52
2023/05/29 03:10:22;;;;;;;11.57;5.13;;;;;;;12.01;68.76;101362.25;5068895;28;20056;-58
2023/05/29 03:12:51;;;;;;;10.90;5.57;;;;;;;12.00;69.19;101364.97;5061739;28;20057;-55
2023/05/29 03:15:20;;;;;;;17.35;5.47;;;;;;;11.95;69.67;101361.72;5062731;28;20151;-54
2023/05/29 03:17:47;;;;;;;14.43;5.13;;;;;;;11.96;69.72;101368.69;5067233;28;20053;-53
2023/05/29 03:20:15;;;;;;;12.35;4.75;;;;;;;11.95;69.73;101367.84;5064697;28;20049;-52
2023/05/29 03:22:43;;;;;;;11.95;5.10;;;;;;;11.93;70.06;101366.22;5067148;28;20040;-56
2023/05/29 03:25:10;;;;;;;9.75;5.00;;;;;;;11.91;70.01;101361.03;5065739;28;20142;-53
2023/05/29 03:27:37;;;;;;;12.70;4.82;;;;;;;11.94;69.53;101370.59;5063787;28;20057;-53
2023/05/29 03:30:05;;;;;;;15.88;5.35;;;;;;;11.94;69.46;101367.94;5067954;28;20055;-54
2023/05/29 03:32:32;;;;;;;11.93;5.10;;;;;;;11.93;69.94;101364.44;5069342;28;20040;-53
2023/05/29 03:35:00;;;;;;;12.23;5.00;;;;;;;11.93;70.07;101363.56;5064624;28;20060;-50
2023/05/29 03:37:27;;;;;;;11.23;4.95;;;;;;;11.88;70.40;101362.03;5074363;28;20056;-52
2023/05/29 03:39:54;;;;;;;10.10;5.55;;;;;;;11.88;70.14;101371.72;5066084;28;20067;-52
2023/05/29 03:42:22;;;;;;;14.80;5.13;;;;;;;11.88;70.46;101367.31;5069726;28;20128;-56
2023/05/29 03:44:49;;;;;;;11.68;5.75;;;;;;;11.90;70.37;101373.38;5071801;28;20095;-50
2023/05/29 03:47:16;;;;;;;8.80;4.28;;;;;;;11.96;69.98;101368.69;5069136;28;20056;-53
2023/05/29 03:49:43;;;;;;;12.20;5.15;;;;;;;12.00;69.50;101376.38;5065111;28;20044;-54
2023/05/29 03:52:11;;;;;;;9.57;4.65;;;;;;;12.04;69.17;101375.28;5085413;28;20044;-54
2023/05/29 03:54:38;;;;;;;9.77;4.40;;;;;;;12.08;69.14;101374.19;5074126;28;20060;-53
2023/05/29 03:57:06;;;;;;;8.82;4.35;;;;;;;12.12;69.01;101369.59;5070620;28;20388;-53
2023/05/29 03:59:33;;;;;;;12.93;4.72;;;;;;;12.16;68.87;101384.34;5068627;28;20054;-51
2023/05/29 04:02:01;;;;;;;10.65;4.60;;;;;;;12.20;68.71;101382.38;5073254;28;20801;-53
2023/05/29 04:04:28;;;;;;;8.50;4.78;;;;;;;12.22;68.59;101377.88;5070226;28;20136;-54
2023/05/29 04:06:56;;;;;;;15.32;4.68;;;;;;;12.27;68.07;101375.84;5069213;28;20136;-58
2023/05/29 04:09:23;;;;;;;8.50;4.65;;;;;;;12.31;68.11;101374.75;5070965;28;20086;-53
2023/05/29 04:11:51;;;;;;;12.82;4.65;;;;;;;12.33;68.12;101376.34;5069229;28;20060;-51
2023/05/29 04:14:19;;;;;;;7.82;4.43;;;;;;;12.38;68.00;101378.72;5069334;28;20124;-52
2023/05/29 04:16:46;;;;;;;9.57;4.93;;;;;;;12.38;67.72;101376.09;5069900;28;20063;-50
2023/05/29 04:19:13;;;;;;;10.32;4.93;;;;;;;12.40;67.65;101383.00;5071521;28;20066;-51
2023/05/29 04:21:41;;;;;;;9.80;4.72;;;;;;;12.45;68.02;101379.28;5069865;28;20056;-50
2023/05/29 04:24:08;;;;;;;10.35;4.80;;;;;;;12.52;67.52;101389.44;5066280;28;20043;-55
2023/05/29 04:26:35;;;;;;;11.05;4.20;;;;;;;12.62;67.05;101387.97;5071253;28;20053;-52
2023/05/29 04:29:03;;;;;;;9.55;4.40;;;;;;;12.72;66.94;101385.66;5067233;28;20057;-51
2023/05/29 04:31:31;;;;;;;9.07;4.55;;;;;;;12.81;66.61;101397.50;5070599;28;20057;-53
2023/05/29 04:34:00;;;;;;;9.30;4.35;;;;;;;12.90;66.48;101391.72;5065492;28;20064;-52
2023/05/29 04:36:28;;;;;;;6.47;3.45;;;;;;;12.99;66.08;101390.34;5082372;28;20656;-53
2023/05/29 04:38:55;;;;;;;7.85;4.25;;;;;;;13.09;65.77;101389.72;5065685;28;20486;-55
2023/05/29 04:41:23;;;;;;;7.70;4.53;;;;;;;13.21;65.48;101382.03;5069075;28;20135;-53
2023/05/29 04:43:55;;;;;;;8.02;4.15;;;;;;;13.33;65.07;101390.16;5068374;28;20512;-53
2023/05/29 04:46:25;;;;;;;5.88;3.83;;;;;;;13.45;65.03;101388.56;5074530;28;20059;-53
2023/05/29 04:48:53;;;;;;;11.05;4.88;;;;;;;13.54;64.66;101384.53;5078592;28;20057;-54
2023/05/29 04:51:21;;;;;;;7.68;4.20;;;;;;;13.66;63.99;101392.59;5060440;28;20128;-55
2023/05/29 04:53:49;;;;;;;6.35;4.13;;;;;;;13.77;63.96;101388.44;5067736;28;20067;-55
2023/05/29 04:56:18;;;;;;;6.97;3.75;;;;;;;13.82;63.45;101396.94;5073133;28;20495;-54
2023/05/29 04:58:45;;;;;;;9.75;3.92;;;;;;;13.88;63.30;101404.53;5066245;28;20062;-55
2023/05/29 05:01:14;;;;;;;8.70;4.32;;;;;;;13.99;62.50;101402.09;5069379;28;20135;-56
2023/05/29 05:03:41;;;;;;;6.95;3.83;;;;;;;14.05;62.16;101404.38;5073207;28;20591;-51
2023/05/29 05:06:09;;;;;;;9.93;4.20;;;;;;;14.09;62.31;101405.88;5067786;28;20623;-54
2023/05/29 05:08:37;;;;;;;7.22;3.95;;;;;;;14.15;61.89;101397.56;5070495;28;20056;-56
2023/05/29 05:11:06;;;;;;;7.78;3.70;;;;;;;14.27;61.84;101395.09;5068900;28;20387;-52
2023/05/29 05:13:33;;;;;;;7.75;3.47;;;;;;;14.37;61.40;101397.09;5056995;28;20049;-51
2023/05/29 05:16:00;;;;;;;9.93;4.28;;;;;;;14.43;60.95;101398.50;5067948;28;20060;-52
2023/05/29 05:18:28;;;;;;;6.45;3.47;;;;;;;14.50;60.57;101398.97;5069111;28;20512;-52
2023/05/29 05:20:56;;;;;;;7.53;3.50;;;;;;;14.51;60.35;101393.59;5066192;28;20400;-52
2023/05/29 05:23:24;;;;;;;9.27;3.83;;;;;;;14.56;60.19;101407.41;5065439;28;21331;-53
2023/05/29 05:25:51;;;;;;;9.63;3.47;;;;;;;14.62;59.65;101407.00;5062079;28;20712;-49
2023/05/29 05:28:18;;;;;;;10.95;4.00;;;;;;;14.64;59.90;101405.13;5066695;28;20055;-55
2023/05/29 05:30:45;;;;;;;9.25;4.18;;;;;;;14.67;59.58;101406.72;5064077;28;20062;-58
2023/05/29 05:33:13;;;;;;;7.60;3.63;;;;;;;14.75;59.46;101409.72;5069284;28;20055;-54
2023/05/29 05:35:40;;;;;;;8.15;4.07;;;;;;;14.77;59.39;101410.50;5068013;28;20067;-56
2023/05/29 05:38:07;;;;;;;5.82;3.25;;;;;;;14.85;58.79;101410.00;5060093;28;20052;-56
2023/05/29 05:40:35;;;;;;;6.65;3.28;;;;;;;14.90;58.65;101408.78;5065846;28;20553;-54
2023/05/29 05:43:02;;;;;;;8.10;4.30;;;;;;;14.96;58.35;101414.63;5066978;28;20139;-54
2023/05/29 05:45:29;;;;;;;5.45;3.08;;;;;;;15.07;58.35;101409.44;5067552;28;20048;-52
2023/05/29 05:47:56;;;;;;;5.72;3.13;;;;;;;15.18;57.95;101412.28;5065241;28;20090;-52
2023/05/29 05:50:25;;;;;;;5.47;3.50;;;;;;;15.26;58.00;101411.75;5068899;28;20052;-51
2023/05/29 05:52:52;;;;;;;5.53;3.13;;;;;;;15.35;57.91;101414.63;5062513;28;20099;-54
2023/05/29 05:55:19;;;;;;;10.27;4.00;;;;;;;15.41;57.76;101419.56;5066870;28;20054;-57
2023/05/29 05:57:46;;;;;;;9.60;3.65;;;;;;;15.49;57.49;101418.16;5061676;28;20061;-54
2023/05/29 06:00:14;;;;;;;9.13;4.20;;;;;;;15.59;56.93;101422.78;5069129;28;20082;-50
2023/05/29 06:02:42;;;;;;;7.13;2.97;;;;;;;15.68;56.60;101431.97;5068053;28;20052;-50
2023/05/29 06:05:11;;;;;;;6.38;3.40;;;;;;;15.77;56.11;101420.72;5070988;28;20484;-55
2023/05/29 06:07:38;;;;;;;5.72;3.13;;;;;;;15.89;55.82;101434.94;5070904;28;20532;-55
2023/05/29 06:10:06;;;;;;;5.50;3.47;;;;;;;15.97;55.57;101426.47;5067038;28;20068;-56
2023/05/29 06:12:34;;;;;;;4.50;2.60;;;;;;;16.05;55.17;101424.13;5066564;28;20055;-55
2023/05/29 06:15:03;;;;;;;5.72;2.92;;;;;;;16.19;54.81;101426.69;5067915;28;20045;-55
2023/05/29 06:17:31;;;;;;;4.93;2.83;;;;;;;16.36;54.42;101430.81;5064600;28;20069;-52
2023/05/29 06:20:00;;;;;;;6.95;2.92;;;;;;;16.54;53.91;101432.16;5052780;28;20128;-58
2023/05/29 06:22:30;;;;;;;7.13;3.13;;;;;;;16.73;52.79;101441.53;5065320;28;20048;-58
2023/05/29 06:24:57;;;;;;;3.83;2.72;;;;;;;16.86;52.51;101439.69;5064744;28;20045;-57
2023/05/29 06:27:25;;;;;;;4.47;2.58;;;;;;;16.92;51.60;101439.22;5066436;28;20594;-56
2023/05/29 06:29:52;;;;;;;3.70;2.05;;;;;;;17.02;51.28;101442.94;5065338;28;20056;-57
2023/05/29 06:32:20;;;;;;;5.15;2.13;;;;;;;17.14;51.07;101442.00;5069811;28;20052;-53
2023/05/29 06:34:47;;;;;;;5.57;2.78;;;;;;;17.30;50.64;101443.56;5060433;28;20144;-57
2023/05/29 06:37:15;;;;;;;7.95;2.97;;;;;;;17.39;50.29;101446.38;5061865;28;20059;-57
2023/05/29 06:39:45;;;;;;;5.32;2.75;;;;;;;17.55;50.30;101446.06;5063225;28;20102;-55
2023/05/29 06:42:13;;;;;;;4.50;2.30;;;;;;;17.68;49.09;101452.16;5061146;28;20079;-57
2023/05/29 06:44:40;;;;;;;4.30;2.17;;;;;;;17.77;48.86;101448.00;5081169;28;20461;-55
2023/05/29 06:47:07;;;;;;;4.07;2.33;;;;;;;17.84;48.24;101454.56;5063287;28;20056;-60
2023/05/29 06:49:35;;;;;;;6.13;2.58;;;;;;;18.00;47.30;101459.53;5067123;28;20061;-56
2023/05/29 06:52:02;;;;;;;4.20;2.45;;;;;;;18.11;47.28;101454.25;5063420;28;20393;-57
2023/05/29 06:54:29;;;;;;;5.55;2.30;;;;;;;18.20;46.95;101452.69;5064592;28;20056;-57
2023/05/29 06:56:56;;;;;;;4.28;2.10;;;;;;;18.27;46.77;101455.72;5063329;28;20136;-57
2023/05/29 06:59:37;;;;;;;3.60;1.83;;;;;;;18.38;46.69;101451.25;5064076;28;20654;-59
2023/05/29 07:02:05;;;;;;;3.85;1.70;;;;;;;18.45;46.39;101456.94;5063037;28;20061;-56
2023/05/29 07:04:32;;;;;;;4.18;2.10;;;;;;;18.45;45.87;101452.44;5061909;28;20037;-54
2023/05/29 07:06:59;;;;;;;6.18;2.53;;;;;;;18.55;46.30;101468.59;5063665;28;20412;-56
2023/05/29 07:09:27;;;;;;;4.65;1.85;;;;;;;18.66;45.82;101465.06;5066181;28;20466;-51
2023/05/29 07:11:55;;;;;;;6.95;2.97;;;;;;;18.81;45.72;101469.19;5059878;28;20517;-55
2023/05/29 07:14:22;;;;;;;4.35;2.25;;;;;;;18.95;45.49;101470.75;5063071;28;20041;-59
2023/05/29 07:16:49;;;;;;;4.85;1.85;;;;;;;19.04;44.82;101467.31;5061174;28;20132;-58
2023/05/29 07:19:17;;;;;;;4.15;1.77;;;;;;;19.25;44.68;101471.91;5067598;28;20056;-58
2023/05/29 07:21:48;;;;;;;3.97;1.63;;;;;;;19.43;43.92;101473.91;5064998;28;20118;-56
2023/05/29 07:24:16;;;;;;;6.68;1.80;;;;;;;19.49;43.81;101478.72;5064946;28;20143;-59
2023/05/29 07:26:43;;;;;;;4.15;1.92;;;;;;;19.57;43.23;101474.56;5062503;28;20067;-59
2023/05/29 07:29:11;;;;;;;3.47;1.65;;;;;;;19.62;42.92;101472.41;5063690;28;20056;-51
2023/05/29 07:31:40;;;;;;;7.15;2.00;;;;;;;19.68;42.45;101477.25;5066013;28;20389;-57
2023/05/29 07:34:07;;;;;;;3.47;1.60;;;;;;;19.77;42.53;101471.13;5066238;28;20058;-54
2023/05/29 07:36:35;;;;;;;5.25;2.00;;;;;;;19.94;42.00;101470.53;5069179;28;20055;-57
2023/05/29 07:39:05;;;;;;;4.05;2.17;;;;;;;20.03;41.67;101476.91;5069690;28;20051;-57
2023/05/29 07:41:32;;;;;;;4.90;2.45;;;;;;;20.07;41.58;101475.66;5065648;28;20051;-52
2023/05/29 07:43:59;;;;;;;4.57;2.05;;;;;;;20.21;41.62;101485.19;5070256;28;20978;-56
2023/05/29 07:46:27;;;;;;;3.00;1.83;;;;;;;20.41;40.99;101478.97;5068497;28;20543;-58
2023/05/29 07:48:54;;;;;;;3.22;1.80;;;;;;;20.64;40.79;101478.81;5069180;28;20060;-57
2023/05/29 07:51:21;;;;;;;3.92;1.70;;;;;;;20.58;39.93;101471.31;5069416;28;20056;-52
2023/05/29 07:53:48;;;;;;;4.75;1.70;;;;;;;20.54;40.13;101488.63;5067209;28;20045;-56
2023/05/29 07:56:16;;;;;;;3.28;1.98;;;;;;;20.68;39.58;101491.78;5066568;28;20052;-55
2023/05/29 07:58:43;;;;;;;2.85;1.70;;;;;;;21.03;39.15;101493.19;5068175;28;20053;-54
2023/05/29 08:01:11;;;;;;;2.25;1.42;;;;;;;21.14;38.62;101494.88;5068014;28;20147;-52
2023/05/29 08:03:38;;;;;;;5.38;2.00;;;;;;;21.35;38.81;101489.47;5065872;28;20048;-54
2023/05/29 08:06:06;;;;;;;4.47;2.03;;;;;;;21.62;38.89;101488.78;5069536;28;20054;-53
2023/05/29 08:08:33;;;;;;;3.42;1.98;;;;;;;21.85;38.57;101489.31;5066164;28;21032;-52
2023/05/29 08:11:00;;;;;;;7.90;2.00;;;;;;;22.03;38.05;101492.13;5068657;28;20048;-56
2023/05/29 08:13:29;;;;;;;3.15;1.73;;;;;;;22.23;37.29;101497.31;5070039;28;20040;-58
2023/05/29 08:15:56;;;;;;;5.82;1.90;;;;;;;22.19;36.59;101500.44;5070944;28;20053;-56
2023/05/29 08:18:27;;;;;;;3.65;1.98;;;;;;;22.13;36.83;101501.03;5069031;28;20051;-58
2023/05/29 08:20:54;;;;;;;3.25;1.58;;;;;;;22.09;37.18;101499.59;5067381;28;20052;-59
2023/05/29 08:23:22;;;;;;;5.43;2.33;;;;;;;21.74;36.67;101498.34;5065475;28;20070;-56
2023/05/29 08:25:50;;;;;;;4.88;1.83;;;;;;;21.40;37.14;101489.88;5067828;28;20109;-58
2023/05/29 08:28:17;;;;;;;6.95;2.22;;;;;;;21.35;37.08;101494.81;5068286;28;20937;-59
2023/05/29 08:30:44;;;;;;;7.07;2.20;;;;;;;21.44;35.92;101492.16;5069131;28;20048;-57
2023/05/29 08:33:11;;;;;;;6.18;1.80;;;;;;;21.54;36.17;101484.09;5066035;28;20075;-56
2023/05/29 08:35:39;;;;;;;4.35;1.88;;;;;;;21.58;36.57;101484.69;5068741;28;20057;-54
2023/05/29 08:38:06;;;;;;;5.10;2.10;;;;;;;21.56;36.03;101481.28;5067472;28;20048;-59
2023/05/29 08:40:33;;;;;;;2.88;1.60;;;;;;;21.63;36.73;101485.94;5073681;28;20508;-57
2023/05/29 08:43:16;;;;;;;3.55;1.92;;;;;;;21.66;37.04;101474.94;5076897;28;20059;-56
2023/05/29 08:45:44;;;;;;;3.33;2.33;;;;;;;21.59;36.54;101470.28;5074735;28;20049;-57
2023/05/29 08:48:12;;;;;;;4.10;1.95;;;;;;;21.44;36.54;101478.75;5081463;28;20112;-55
2023/05/29 08:50:47;;;;;;;4.85;2.00;;;;;;;21.56;36.69;101474.09;5072715;28;20044;-54
2023/05/29 08:53:15;;;;;;;3.72;2.15;;;;;;;21.53;37.02;101481.59;5063591;28;20519;-56
2023/05/29 08:55:42;;;;;;;7.70;2.40;;;;;;;21.60;37.17;101486.22;5068423;28;20064;-58
2023/05/29 08:58:11;;;;;;;3.25;1.90;;;;;;;21.87;37.27;101487.34;5072595;28;20463;-50
2023/05/29 09:00:38;;;;;;;4.80;2.50;;;;;;;22.07;37.12;101486.31;5068866;28;20052;-53
2023/05/29 09:03:05;;;;;;;5.80;2.33;;;;;;;22.09;35.72;101488.84;5066093;28;20422;-57
2023/05/29 09:05:33;;;;;;;4.25;2.08;;;;;;;22.16;36.63;101487.34;5073137;28;20053;-54
2023/05/29 09:08:02;;;;;;;4.80;2.33;;;;;;;22.36;37.20;101482.75;5050481;28;20073;-54
2023/05/29 09:10:29;;;;;;;4.30;2.30;;;;;;;22.53;36.42;101481.97;5069203;28;20060;-55
2023/05/29 09:12:57;;;;;;;3.00;2.10;;;;;;;22.70;36.26;101489.25;5062082;28;20571;-57
2023/05/29 09:15:24;;;;;;;7.22;2.78;;;;;;;22.71;35.60;101488.25;5069298;28;20051;-58
2023/05/29 09:17:58;;;;;;;6.28;2.10;;;;;;;22.76;35.87;101471.72;5069345;28;20048;-53
2023/05/29 09:20:25;;;;;;;4.20;2.03;;;;;;;22.87;35.67;101484.06;5066350;28;20627;-53
2023/05/29 09:22:54;;;;;;;5.30;2.28;;;;;;;22.91;35.75;101489.03;5057621;28;20049;-52
2023/05/29 09:25:27;;;;;;;5.93;2.13;;;;;;;22.93;35.55;101488.91;5061926;28;20048;-54
2023/05/29 09:28:05;;;;;;;4.28;2.20;;;;;;;23.12;35.54;101487.94;5069716;28;20048;-53
2023/05/29 09:30:43;;;;;;;4.40;2.40;;;;;;;23.04;35.55;101485.16;5069185;28;20436;-54
2023/05/29 09:33:12;;;;;;;3.38;1.90;;;;;;;22.92;35.39;101497.91;5068533;28;20057;-53
2023/05/29 09:35:50;;;;;;;10.45;2.33;;;;;;;23.05;35.91;101495.72;5060125;28;20444;-54
2023/05/29 09:38:19;;;;;;;3.28;2.42;;;;;;;23.32;34.92;101510.13;5054172;28;20055;-55
2023/05/29 09:40:49;;;;;;;4.18;2.50;;;;;;;23.57;35.18;101509.38;5072195;28;20044;-55
2023/05/29 09:43:17;;;;;;;4.72;2.30;;;;;;;23.64;33.90;101498.84;5049923;28;20048;-53
2023/05/29 09:45:46;;;;;;;4.25;2.50;;;;;;;23.56;33.25;101506.84;5071700;28;20048;-58
2023/05/29 09:48:18;;;;;;;6.30;2.70;;;;;;;23.37;33.03;101497.06;5062735;28;20101;-55
2023/05/29 09:50:47;;;;;;;4.53;2.45;;;;;;;23.58;32.59;101489.56;5064665;28;20439;-54
2023/05/29 09:53:23;;;;;;;5.97;2.50;;;;;;;23.27;32.81;101494.47;5062360;28;20665;-54
2023/05/29 09:55:52;;;;;;;2.90;1.92;;;;;;;23.27;33.36;101493.63;5065837;28;20056;-52
2023/05/29 09:58:20;;;;;;;4.95;2.72;;;;;;;23.17;32.89;101485.63;5068756;28;20412;-53
2023/05/29 10:00:49;;;;;;;5.38;2.53;;;;;;;23.35;33.50;101480.28;5065792;28;20138;-56
2023/05/29 10:03:16;;;;;;;3.92;2.33;;;;;;;23.73;33.85;101481.81;5074867;28;20057;-58
2023/05/29 10:05:50;;;;;;;8.02;2.47;;;;;;;23.67;32.27;101479.75;5067585;28;20055;-54
2023/05/29 10:08:19;;;;;;;5.55;2.40;;;;;;;23.44;32.42;101472.13;5066369;28;20113;-53
2023/05/29 10:10:51;;;;;;;5.32;2.60;;;;;;;23.71;33.06;101470.38;5071854;28;20446;-59
2023/05/29 10:13:18;;;;;;;3.53;2.25;;;;;;;23.94;32.92;101476.94;5069677;28;20083;-54
2023/05/29 10:15:46;;;;;;;3.83;2.10;;;;;;;24.01;32.84;101469.13;5066986;28;20139;-57
2023/05/29 10:18:19;;;;;;;9.20;2.47;;;;;;;24.30;32.95;101466.09;5072133;28;20135;-52
2023/05/29 10:20:51;;;;;;;5.07;2.30;;;;;;;24.45;32.85;101469.06;5072712;28;20063;-50
2023/05/29 10:23:22;;;;;;;5.45;2.60;;;;;;;24.52;33.06;101480.03;5064421;28;20044;-53
2023/05/29 10:25:54;;;;;;;6.78;2.03;;;;;;;24.50;31.93;101474.81;5065007;28;20750;-56
2023/05/29 10:28:23;;;;;;;4.30;2.00;;;;;;;24.38;31.67;101486.88;5061751;28;20127;-57
2023/05/29 10:30:54;;;;;;;7.60;2.83;;;;;;;23.98;32.34;101475.63;5071279;28;20102;-56
2023/05/29 10:33:27;;;;;;;3.80;2.20;;;;;;;24.15;32.13;101476.59;5064691;28;20049;-51
2023/05/29 10:36:03;;;;;;;4.70;2.10;;;;;;;24.26;32.05;101472.78;5072103;28;20059;-53
2023/05/29 10:38:31;;;;;;;5.93;2.42;;;;;;;24.32;30.96;101476.72;5060651;28;20758;-54
2023/05/29 10:41:27;;;;;;;6.00;2.05;;;;;;;24.27;30.82;101461.03;5071374;28;20075;-52
2023/05/29 10:44:02;;;;;;;3.35;2.03;;;;;;;24.67;30.98;101471.19;5055467;28;20088;-52
2023/05/29 10:46:50;;;;;;;3.72;2.28;;;;;;;24.78;31.09;101471.91;5079222;28;20162;-59
2023/05/29 10:49:19;;;;;;;4.43;2.45;;;;;;;24.81;30.33;101466.19;5061628;28;20049;-58
2023/05/29 10:51:48;;;;;;;5.22;2.60;;;;;;;24.59;30.01;101473.03;5060636;28;20459;-58
2023/05/29 10:54:18;;;;;;;5.15;2.13;;;;;;;24.08;29.67;101472.00;5057936;28;20055;-54
2023/05/29 10:56:53;;;;;;;4.45;2.15;;;;;;;23.62;29.95;101471.28;5059431;28;20052;-58
2023/05/29 10:59:20;;;;;;;5.30;2.45;;;;;;;23.36;30.38;101457.78;5063161;28;20053;-57
2023/05/29 11:01:52;;;;;;;4.53;1.98;;;;;;;23.57;30.52;101462.84;5079710;28;20056;-59
2023/05/29 11:04:25;;;;;;;3.13;1.70;;;;;;;23.69;31.20;101462.50;5063456;28;20056;-59
2023/05/29 11:06:52;;;;;;;3.88;2.17;;;;;;;23.80;31.54;101460.53;5066533;28;20048;-57
2023/05/29 11:09:34;;;;;;;3.70;2.30;;;;;;;23.93;31.89;101463.69;5060903;28;20049;-56
2023/05/29 11:12:35;;;;;;;6.15;2.33;;;;;;;24.04;31.73;101462.56;5063009;28;20059;-58
2023/05/29 11:15:05;;;;;;;4.90;3.42;;;;;;;24.17;31.12;101458.44;5064902;28;20144;-59
2023/05/29 11:17:55;;;;;;;5.05;3.28;;;;;;;24.52;30.73;101453.13;5069527;28;20068;-60
2023/05/29 11:20:47;;;;;;;4.68;2.88;;;;;;;24.96;28.64;101451.09;5062475;28;20553;-56
2023/05/29 11:23:18;;;;;;;6.45;2.33;;;;;;;25.17;29.48;101456.03;5060893;28;20135;-58
2023/05/29 11:25:47;;;;;;;4.65;2.60;;;;;;;25.24;29.13;101454.38;5061850;28;20056;-56
2023/05/29 11:28:15;;;;;;;5.88;2.75;;;;;;;25.22;28.50;101449.16;5062913;28;20075;-58
2023/05/29 11:30:47;;;;;;;3.75;2.30;;;;;;;25.00;29.23;101452.47;5063827;28;20064;-60